createdAt,value
2023-11-17T00:00:59.930Z,1008.85
2023-11-17T00:01:59.927Z,1008.85
2023-11-17T00:03:00.086Z,1008.85
2023-11-17T00:03:59.969Z,1008.83
2023-11-17T00:04:59.888Z,1008.85
2023-11-17T00:05:59.788Z,1008.87
2023-11-17T00:06:59.799Z,1008.88
2023-11-17T00:07:59.733Z,1008.92
2023-11-17T00:08:59.705Z,1008.93
2023-11-17T00:09:59.694Z,1008.91
2023-11-17T00:10:59.650Z,1008.93
2023-11-17T00:11:59.650Z,1008.97
2023-11-17T00:12:59.611Z,1009.00
2023-11-17T00:13:59.563Z,1008.98
2023-11-17T00:14:59.540Z,1008.97
2023-11-17T00:15:59.588Z,1009.02
2023-11-17T00:16:59.576Z,1009.00
2023-11-17T00:17:59.505Z,1009.01
2023-11-17T00:18:59.477Z,1009.01
2023-11-17T00:19:59.421Z,1009.06
2023-11-17T00:20:59.380Z,1009.05
2023-11-17T00:21:59.390Z,1009.06
2023-11-17T00:22:59.320Z,1009.07
2023-11-17T00:23:59.297Z,1009.10
2023-11-17T00:24:59.287Z,1009.10
2023-11-17T00:25:59.237Z,1009.16
2023-11-17T00:26:59.223Z,1009.16
2023-11-17T00:27:59.242Z,1009.17
2023-11-17T00:28:59.157Z,1009.23
2023-11-17T00:29:59.134Z,1009.21
2023-11-17T00:30:59.163Z,1009.26
2023-11-17T00:31:59.085Z,1009.30
2023-11-17T00:32:59.106Z,1009.30
2023-11-17T00:33:59.170Z,1009.29
2023-11-17T00:34:59.116Z,1009.30
2023-11-17T00:35:58.969Z,1009.31
2023-11-17T00:36:59.041Z,1009.32
2023-11-17T00:37:58.924Z,1009.34
2023-11-17T00:38:58.885Z,1009.35
2023-11-17T00:39:58.890Z,1009.36
2023-11-17T00:40:58.827Z,1009.40
2023-11-17T00:41:58.812Z,1009.40
2023-11-17T00:42:58.844Z,1009.46
2023-11-17T00:43:58.920Z,1009.48
2023-11-17T00:44:58.722Z,1009.49
2023-11-17T00:45:58.880Z,1009.49
2023-11-17T00:46:58.818Z,1009.52
2023-11-17T00:47:58.701Z,1009.57
2023-11-17T00:48:58.662Z,1009.59
2023-11-17T00:49:58.589Z,1009.57
2023-11-17T00:50:58.556Z,1009.60
2023-11-17T00:51:58.565Z,1009.62
2023-11-17T00:52:58.503Z,1009.60
2023-11-17T00:53:58.482Z,1009.59
2023-11-17T00:54:58.457Z,1009.63
2023-11-17T00:55:58.420Z,1009.61
2023-11-17T00:56:58.398Z,1009.62
2023-11-17T00:57:58.385Z,1009.66
2023-11-17T00:58:58.342Z,1009.62
2023-11-17T00:59:58.332Z,1009.65
2023-11-17T01:00:58.324Z,1009.67
2023-11-17T01:01:58.282Z,1009.69
2023-11-17T01:02:58.264Z,1009.70
2023-11-17T01:03:58.237Z,1009.68
2023-11-17T01:04:58.176Z,1009.72
2023-11-17T01:05:58.150Z,1009.75
2023-11-17T01:06:58.153Z,1009.77
2023-11-17T01:07:58.105Z,1009.79
2023-11-17T01:08:58.091Z,1009.82
2023-11-17T01:09:58.083Z,1009.84
2023-11-17T01:10:58.015Z,1009.84
2023-11-17T01:11:57.983Z,1009.84
2023-11-17T01:12:58.094Z,1009.81
2023-11-17T01:13:57.937Z,1009.81
2023-11-17T01:14:57.901Z,1009.83
2023-11-17T01:15:57.927Z,1009.87
2023-11-17T01:16:57.881Z,1009.85
2023-11-17T01:17:57.834Z,1009.88
2023-11-17T01:18:57.797Z,1009.95
2023-11-17T01:19:57.766Z,1009.92
2023-11-17T01:20:57.753Z,1009.96
2023-11-17T01:21:57.729Z,1009.99
2023-11-17T01:22:57.684Z,1009.98
2023-11-17T01:23:57.658Z,1010.01
2023-11-17T01:24:57.664Z,1010.06
2023-11-17T01:25:57.607Z,1010.08
2023-11-17T01:26:57.578Z,1010.08
2023-11-17T01:27:57.582Z,1010.05
2023-11-17T01:28:57.520Z,1010.09
2023-11-17T01:29:57.492Z,1010.08
2023-11-17T01:30:57.489Z,1010.13
2023-11-17T01:31:57.457Z,1010.14
2023-11-17T01:32:57.465Z,1010.11
2023-11-17T01:33:57.407Z,1010.11
2023-11-17T01:34:57.367Z,1010.12
2023-11-17T01:35:57.330Z,1010.17
2023-11-17T01:36:57.333Z,1010.13
2023-11-17T01:37:57.274Z,1010.13
2023-11-17T01:38:57.249Z,1010.15
2023-11-17T01:39:57.293Z,1010.14
2023-11-17T01:40:57.191Z,1010.13
2023-11-17T01:41:57.164Z,1010.13
2023-11-17T01:42:57.172Z,1010.14
2023-11-17T01:43:57.108Z,1010.13
2023-11-17T01:44:57.085Z,1010.11
2023-11-17T01:45:57.132Z,1010.12
2023-11-17T01:46:57.196Z,1010.13
2023-11-17T01:47:57.051Z,1010.10
2023-11-17T01:48:57.005Z,1010.16
2023-11-17T01:49:56.947Z,1010.15
2023-11-17T01:50:56.926Z,1010.18
2023-11-17T01:51:56.901Z,1010.21
2023-11-17T01:52:56.901Z,1010.21
2023-11-17T01:53:56.838Z,1010.23
2023-11-17T01:54:56.826Z,1010.29
2023-11-17T01:55:56.786Z,1010.30
2023-11-17T01:56:56.760Z,1010.28
2023-11-17T01:57:56.757Z,1010.29
2023-11-17T01:58:56.768Z,1010.33
2023-11-17T01:59:56.666Z,1010.34
2023-11-17T02:00:56.686Z,1010.36
2023-11-17T02:01:56.646Z,1010.37
2023-11-17T02:02:56.714Z,1010.35
2023-11-17T02:03:56.705Z,1010.35
2023-11-17T02:04:56.550Z,1010.41
2023-11-17T02:05:56.503Z,1010.39
2023-11-17T02:06:56.515Z,1010.37
2023-11-17T02:07:56.459Z,1010.39
2023-11-17T02:08:56.429Z,1010.42
2023-11-17T02:09:56.453Z,1010.37
2023-11-17T02:10:56.526Z,1010.39
2023-11-17T02:11:56.341Z,1010.43
2023-11-17T02:12:56.320Z,1010.42
2023-11-17T02:13:56.318Z,1010.41
2023-11-17T02:14:56.262Z,1010.42
2023-11-17T02:15:56.260Z,1010.48
2023-11-17T02:16:56.245Z,1010.46
2023-11-17T02:17:56.270Z,1010.51
2023-11-17T02:18:56.207Z,1010.53
2023-11-17T02:19:56.144Z,1010.52
2023-11-17T02:20:56.098Z,1010.52
2023-11-17T02:21:56.154Z,1010.52
2023-11-17T02:22:56.048Z,1010.57
2023-11-17T02:23:56.022Z,1010.57
2023-11-17T02:24:56.027Z,1010.57
2023-11-17T02:25:55.955Z,1010.55
2023-11-17T02:26:55.951Z,1010.57
2023-11-17T02:27:55.933Z,1010.60
2023-11-17T02:28:55.876Z,1010.57
2023-11-17T02:29:55.845Z,1010.60
2023-11-17T02:30:55.934Z,1010.65
2023-11-17T02:31:55.850Z,1010.59
2023-11-17T02:32:55.818Z,1010.65
2023-11-17T02:33:55.756Z,1010.64
2023-11-17T02:34:55.709Z,1010.66
2023-11-17T02:35:55.703Z,1010.71
2023-11-17T02:36:55.752Z,1010.72
2023-11-17T02:37:55.627Z,1010.71
2023-11-17T02:38:55.603Z,1010.71
2023-11-17T02:39:55.674Z,1010.74
2023-11-17T02:40:55.550Z,1010.75
2023-11-17T02:41:55.517Z,1010.78
2023-11-17T02:42:55.508Z,1010.81
2023-11-17T02:43:55.476Z,1010.77
2023-11-17T02:44:55.431Z,1010.77
2023-11-17T02:45:55.480Z,1010.78
2023-11-17T02:46:55.408Z,1010.74
2023-11-17T02:47:56.625Z,1010.77
2023-11-17T02:48:55.337Z,1010.81
2023-11-17T02:49:55.298Z,1010.78
2023-11-17T02:50:55.271Z,1010.78
2023-11-17T02:51:55.339Z,1010.79
2023-11-17T02:52:55.221Z,1010.75
2023-11-17T02:53:55.185Z,1010.79
2023-11-17T02:54:55.208Z,1010.76
2023-11-17T02:55:55.130Z,1010.77
2023-11-17T02:56:55.106Z,1010.75
2023-11-17T02:57:55.102Z,1010.79
2023-11-17T02:58:55.060Z,1010.80
2023-11-17T02:59:55.020Z,1010.82
2023-11-17T03:00:55.013Z,1010.86
2023-11-17T03:01:54.999Z,1010.87
2023-11-17T03:02:55.020Z,1010.85
2023-11-17T03:03:55.079Z,1010.85
2023-11-17T03:04:54.885Z,1010.86
2023-11-17T03:05:54.857Z,1010.85
2023-11-17T03:06:54.865Z,1010.89
2023-11-17T03:07:54.819Z,1010.90
2023-11-17T03:08:54.782Z,1010.91
2023-11-17T03:09:54.794Z,1010.91
2023-11-17T03:10:54.729Z,1010.90
2023-11-17T03:11:54.696Z,1010.93
2023-11-17T03:12:54.713Z,1010.96
2023-11-17T03:13:54.633Z,1010.97
2023-11-17T03:14:54.820Z,1010.96
2023-11-17T03:15:54.594Z,1010.94
2023-11-17T03:16:54.590Z,1010.98
2023-11-17T03:17:54.540Z,1010.96
2023-11-17T03:18:54.520Z,1010.96
2023-11-17T03:19:54.469Z,1010.97
2023-11-17T03:20:54.447Z,1010.98
2023-11-17T03:21:54.474Z,1010.95
2023-11-17T03:22:54.396Z,1010.99
2023-11-17T03:23:54.385Z,1011.02
2023-11-17T03:24:54.350Z,1011.05
2023-11-17T03:25:54.449Z,1011.05
2023-11-17T03:26:54.286Z,1011.06
2023-11-17T03:27:54.301Z,1011.07
2023-11-17T03:28:54.219Z,1011.06
2023-11-17T03:29:54.193Z,1011.06
2023-11-17T03:30:54.192Z,1011.11
2023-11-17T03:31:55.169Z,1011.08
2023-11-17T03:32:54.376Z,1011.12
2023-11-17T03:33:54.112Z,1011.11
2023-11-17T03:34:54.058Z,1011.14
2023-11-17T03:35:54.026Z,1011.13
2023-11-17T03:36:54.010Z,1011.13
2023-11-17T03:37:53.974Z,1011.14
2023-11-17T03:38:53.950Z,1011.11
2023-11-17T03:39:53.952Z,1011.16
2023-11-17T03:40:53.898Z,1011.15
2023-11-17T03:41:53.900Z,1011.13
2023-11-17T03:42:53.901Z,1011.11
2023-11-17T03:43:53.810Z,1011.12
2023-11-17T03:44:53.790Z,1011.14
2023-11-17T03:45:53.768Z,1011.13
2023-11-17T03:46:53.810Z,1011.16
2023-11-17T03:47:53.733Z,1011.13
2023-11-17T03:48:53.742Z,1011.11
2023-11-17T03:49:53.641Z,1011.12
2023-11-17T03:50:53.616Z,1011.10
2023-11-17T03:51:53.622Z,1011.11
2023-11-17T03:52:55.062Z,1011.11
2023-11-17T03:53:53.528Z,1011.15
2023-11-17T03:54:53.530Z,1011.10
2023-11-17T03:55:53.502Z,1011.12
2023-11-17T03:56:53.469Z,1011.10
2023-11-17T03:57:53.449Z,1011.06
2023-11-17T03:58:53.398Z,1011.07
2023-11-17T03:59:53.365Z,1011.10
2023-11-17T04:00:53.388Z,1011.04
2023-11-17T04:01:53.514Z,1011.05
2023-11-17T04:02:53.433Z,1011.05
2023-11-17T04:03:53.292Z,1011.09
2023-11-17T04:04:53.233Z,1011.07
2023-11-17T04:05:53.199Z,1011.14
2023-11-17T04:06:53.215Z,1011.11
2023-11-17T04:07:53.143Z,1011.14
2023-11-17T04:08:53.117Z,1011.12
2023-11-17T04:09:53.120Z,1011.13
2023-11-17T04:10:53.073Z,1011.12
2023-11-17T04:11:53.115Z,1011.11
2023-11-17T04:12:53.020Z,1011.15
2023-11-17T04:13:52.992Z,1011.17
2023-11-17T04:14:52.951Z,1011.20
2023-11-17T04:15:52.994Z,1011.20
2023-11-17T04:16:53.080Z,1011.19
2023-11-17T04:17:52.889Z,1011.23
2023-11-17T04:18:52.883Z,1011.21
2023-11-17T04:19:52.813Z,1011.21
2023-11-17T04:20:52.787Z,1011.23
2023-11-17T04:21:52.819Z,1011.23
2023-11-17T04:22:52.737Z,1011.19
2023-11-17T04:23:52.699Z,1011.22
2023-11-17T04:24:52.703Z,1011.22
2023-11-17T04:25:52.660Z,1011.20
2023-11-17T04:26:52.618Z,1011.24
2023-11-17T04:27:52.639Z,1011.24
2023-11-17T04:28:52.564Z,1011.25
2023-11-17T04:29:52.530Z,1011.25
2023-11-17T04:30:52.612Z,1011.24
2023-11-17T04:31:52.474Z,1011.32
2023-11-17T04:32:52.548Z,1011.31
2023-11-17T04:33:52.449Z,1011.34
2023-11-17T04:34:52.402Z,1011.36
2023-11-17T04:35:52.367Z,1011.32
2023-11-17T04:36:52.399Z,1011.35
2023-11-17T04:37:52.308Z,1011.33
2023-11-17T04:38:52.287Z,1011.36
2023-11-17T04:39:52.354Z,1011.36
2023-11-17T04:40:52.228Z,1011.35
2023-11-17T04:41:52.313Z,1011.35
2023-11-17T04:42:52.235Z,1011.37
2023-11-17T04:43:52.177Z,1011.36
2023-11-17T04:44:52.117Z,1011.37
2023-11-17T04:45:52.204Z,1011.39
2023-11-17T04:46:52.115Z,1011.39
2023-11-17T04:47:52.066Z,1011.40
2023-11-17T04:48:52.091Z,1011.45
2023-11-17T04:49:51.985Z,1011.45
2023-11-17T04:50:51.952Z,1011.44
2023-11-17T04:51:51.935Z,1011.45
2023-11-17T04:52:51.904Z,1011.44
2023-11-17T04:53:51.871Z,1011.41
2023-11-17T04:54:51.870Z,1011.39
2023-11-17T04:55:51.832Z,1011.35
2023-11-17T04:56:51.782Z,1011.37
2023-11-17T04:57:51.784Z,1011.36
2023-11-17T04:58:51.734Z,1011.38
2023-11-17T04:59:51.723Z,1011.38
2023-11-17T05:00:51.722Z,1011.40
2023-11-17T05:01:51.725Z,1011.39
2023-11-17T05:02:51.644Z,1011.34
2023-11-17T05:03:51.661Z,1011.39
2023-11-17T05:04:51.594Z,1011.37
2023-11-17T05:05:51.534Z,1011.38
2023-11-17T05:06:51.537Z,1011.39
2023-11-17T05:07:51.481Z,1011.41
2023-11-17T05:08:51.464Z,1011.39
2023-11-17T05:09:51.519Z,1011.42
2023-11-17T05:10:51.430Z,1011.38
2023-11-17T05:11:51.368Z,1011.41
2023-11-17T05:12:51.360Z,1011.44
2023-11-17T05:13:51.310Z,1011.44
2023-11-17T05:14:51.333Z,1011.44
2023-11-17T05:15:51.339Z,1011.46
2023-11-17T05:16:51.350Z,1011.50
2023-11-17T05:17:51.249Z,1011.49
2023-11-17T05:18:51.220Z,1011.53
2023-11-17T05:19:51.151Z,1011.51
2023-11-17T05:20:51.118Z,1011.52
2023-11-17T05:21:51.096Z,1011.56
2023-11-17T05:22:51.061Z,1011.53
2023-11-17T05:23:51.031Z,1011.55
2023-11-17T05:24:51.036Z,1011.56
2023-11-17T05:25:51.030Z,1011.56
2023-11-17T05:26:50.952Z,1011.56
2023-11-17T05:27:50.926Z,1011.55
2023-11-17T05:28:50.893Z,1011.60
2023-11-17T05:29:50.864Z,1011.59
2023-11-17T05:30:50.887Z,1011.56
2023-11-17T05:31:50.949Z,1011.56
2023-11-17T05:32:50.838Z,1011.55
2023-11-17T05:33:50.842Z,1011.53
2023-11-17T05:34:50.727Z,1011.51
2023-11-17T05:35:50.695Z,1011.48
2023-11-17T05:36:50.734Z,1011.51
2023-11-17T05:37:50.639Z,1011.54
2023-11-17T05:38:50.633Z,1011.53
2023-11-17T05:39:50.825Z,1011.52
2023-11-17T05:40:50.555Z,1011.54
2023-11-17T05:41:50.531Z,1011.56
2023-11-17T05:42:50.520Z,1011.57
2023-11-17T05:43:50.529Z,1011.60
2023-11-17T05:44:50.449Z,1011.60
2023-11-17T05:45:50.446Z,1011.62
2023-11-17T05:46:50.495Z,1011.64
2023-11-17T05:47:50.431Z,1011.59
2023-11-17T05:48:50.332Z,1011.60
2023-11-17T05:49:50.342Z,1011.57
2023-11-17T05:50:50.281Z,1011.60
2023-11-17T05:51:52.185Z,1011.61
2023-11-17T05:52:50.219Z,1011.61
2023-11-17T05:53:50.191Z,1011.61
2023-11-17T05:54:50.167Z,1011.63
2023-11-17T05:55:50.135Z,1011.67
2023-11-17T05:56:50.117Z,1011.67
2023-11-17T05:57:50.082Z,1011.66
2023-11-17T05:58:50.074Z,1011.63
2023-11-17T05:59:51.388Z,1011.68
2023-11-17T06:00:49.998Z,1011.67
2023-11-17T06:01:49.976Z,1011.70
2023-11-17T06:02:50.052Z,1011.68
2023-11-17T06:03:49.985Z,1011.75
2023-11-17T06:04:50.037Z,1011.78
2023-11-17T06:05:49.876Z,1011.76
2023-11-17T06:06:49.832Z,1011.77
2023-11-17T06:07:49.805Z,1011.81
2023-11-17T06:08:49.779Z,1011.83
2023-11-17T06:09:49.751Z,1011.81
2023-11-17T06:10:49.723Z,1011.76
2023-11-17T06:11:49.713Z,1011.77
2023-11-17T06:12:49.659Z,1011.78
2023-11-17T06:13:49.645Z,1011.77
2023-11-17T06:14:49.610Z,1011.82
2023-11-17T06:15:49.587Z,1011.85
2023-11-17T06:16:49.645Z,1011.84
2023-11-17T06:17:49.571Z,1011.86
2023-11-17T06:18:49.502Z,1011.89
2023-11-17T06:19:49.511Z,1011.86
2023-11-17T06:20:49.438Z,1011.90
2023-11-17T06:21:49.417Z,1011.92
2023-11-17T06:22:49.378Z,1011.89
2023-11-17T06:23:49.361Z,1011.90
2023-11-17T06:24:49.327Z,1011.92
2023-11-17T06:25:49.317Z,1011.92
2023-11-17T06:26:49.277Z,1011.92
2023-11-17T06:27:49.249Z,1011.92
2023-11-17T06:28:49.221Z,1011.95
2023-11-17T06:29:49.193Z,1011.94
2023-11-17T06:30:49.161Z,1011.92
2023-11-17T06:31:49.182Z,1012.00
2023-11-17T06:32:49.124Z,1011.98
2023-11-17T06:33:49.087Z,1011.97
2023-11-17T06:34:49.049Z,1011.98
2023-11-17T06:35:49.045Z,1011.97
2023-11-17T06:36:48.994Z,1012.00
2023-11-17T06:37:48.973Z,1012.00
2023-11-17T06:38:48.941Z,1012.02
2023-11-17T06:39:48.923Z,1012.04
2023-11-17T06:40:48.895Z,1012.06
2023-11-17T06:41:48.878Z,1012.03
2023-11-17T06:42:48.854Z,1012.05
2023-11-17T06:43:48.876Z,1012.08
2023-11-17T06:44:48.771Z,1012.06
2023-11-17T06:45:48.789Z,1012.07
2023-11-17T06:46:48.843Z,1012.08
2023-11-17T06:47:48.706Z,1012.10
2023-11-17T06:48:48.673Z,1012.15
2023-11-17T06:49:48.637Z,1012.15
2023-11-17T06:50:48.605Z,1012.18
2023-11-17T06:51:48.604Z,1012.16
2023-11-17T06:52:48.552Z,1012.18
2023-11-17T06:53:48.529Z,1012.19
2023-11-17T06:54:48.492Z,1012.19
2023-11-17T06:55:48.468Z,1012.14
2023-11-17T06:56:48.436Z,1012.16
2023-11-17T06:57:48.412Z,1012.16
2023-11-17T06:58:48.385Z,1012.17
2023-11-17T06:59:48.360Z,1012.11
2023-11-17T07:00:48.336Z,1012.15
2023-11-17T07:01:48.541Z,1012.14
2023-11-17T07:02:48.335Z,1012.12
2023-11-17T07:03:48.365Z,1012.14
2023-11-17T07:04:48.245Z,1012.12
2023-11-17T07:05:48.197Z,1012.13
2023-11-17T07:06:48.160Z,1012.20
2023-11-17T07:07:48.290Z,1012.17
2023-11-17T07:08:48.107Z,1012.21
2023-11-17T07:09:48.084Z,1012.22
2023-11-17T07:10:48.051Z,1012.22
2023-11-17T07:11:48.034Z,1012.21
2023-11-17T07:12:47.989Z,1012.25
2023-11-17T07:13:50.066Z,1012.26
2023-11-17T07:14:47.996Z,1012.20
2023-11-17T07:15:47.907Z,1012.20
2023-11-17T07:16:47.901Z,1012.23
2023-11-17T07:17:47.935Z,1012.25
2023-11-17T07:18:47.825Z,1012.21
2023-11-17T07:19:47.796Z,1012.23
2023-11-17T07:20:47.775Z,1012.24
2023-11-17T07:21:47.813Z,1012.22
2023-11-17T07:22:47.742Z,1012.24
2023-11-17T07:23:47.806Z,1012.24
2023-11-17T07:24:47.655Z,1012.29
2023-11-17T07:25:47.631Z,1012.27
2023-11-17T07:26:47.633Z,1012.30
2023-11-17T07:27:47.579Z,1012.33
2023-11-17T07:28:47.572Z,1012.37
2023-11-17T07:29:47.513Z,1012.34
2023-11-17T07:30:47.512Z,1012.38
2023-11-17T07:31:47.584Z,1012.37
2023-11-17T07:32:47.475Z,1012.41
2023-11-17T07:33:47.406Z,1012.37
2023-11-17T07:34:47.376Z,1012.40
2023-11-17T07:35:47.386Z,1012.40
2023-11-17T07:36:47.330Z,1012.43
2023-11-17T07:37:47.302Z,1012.44
2023-11-17T07:38:47.269Z,1012.42
2023-11-17T07:39:47.350Z,1012.46
2023-11-17T07:40:47.313Z,1012.43
2023-11-17T07:41:47.195Z,1012.47
2023-11-17T07:42:47.158Z,1012.50
2023-11-17T07:43:47.131Z,1012.47
2023-11-17T07:44:47.099Z,1012.47
2023-11-17T07:45:47.079Z,1012.50
2023-11-17T07:46:47.160Z,1012.49
2023-11-17T07:47:47.044Z,1012.53
2023-11-17T07:48:53.947Z,1012.50
2023-11-17T07:49:46.999Z,1012.48
2023-11-17T07:50:46.934Z,1012.53
2023-11-17T07:51:46.906Z,1012.53
2023-11-17T07:52:46.884Z,1012.54
2023-11-17T07:53:46.890Z,1012.54
2023-11-17T07:54:46.828Z,1012.55
2023-11-17T07:55:46.922Z,1012.59
2023-11-17T07:56:46.884Z,1012.57
2023-11-17T07:57:46.753Z,1012.62
2023-11-17T07:58:46.711Z,1012.58
2023-11-17T07:59:46.681Z,1012.58
2023-11-17T08:00:46.665Z,1012.63
2023-11-17T08:01:46.636Z,1012.68
2023-11-17T08:02:46.766Z,1012.67
2023-11-17T08:03:46.671Z,1012.72
2023-11-17T08:04:46.710Z,1012.72
2023-11-17T08:05:46.539Z,1012.75
2023-11-17T08:06:46.495Z,1012.77
2023-11-17T08:07:46.553Z,1012.76
2023-11-17T08:08:46.431Z,1012.79
2023-11-17T08:09:46.417Z,1012.81
2023-11-17T08:10:46.373Z,1012.81
2023-11-17T08:11:46.458Z,1012.80
2023-11-17T08:12:46.326Z,1012.81
2023-11-17T08:13:46.298Z,1012.82
2023-11-17T08:14:46.260Z,1012.85
2023-11-17T08:15:46.262Z,1012.86
2023-11-17T08:16:46.268Z,1012.87
2023-11-17T08:17:46.202Z,1012.83
2023-11-17T08:18:46.162Z,1012.82
2023-11-17T08:19:46.159Z,1012.83
2023-11-17T08:20:46.090Z,1012.83
2023-11-17T08:21:46.084Z,1012.77
2023-11-17T08:22:46.065Z,1012.83
2023-11-17T08:23:46.029Z,1012.81
2023-11-17T08:24:45.997Z,1012.83
2023-11-17T08:25:45.957Z,1012.85
2023-11-17T08:26:45.939Z,1012.85
2023-11-17T08:27:46.339Z,1012.90
2023-11-17T08:28:45.870Z,1012.81
2023-11-17T08:29:45.845Z,1012.86
2023-11-17T08:30:50.538Z,1012.89
2023-11-17T08:31:45.898Z,1012.84
2023-11-17T08:32:45.765Z,1012.85
2023-11-17T08:33:45.738Z,1012.86
2023-11-17T08:34:45.701Z,1012.87
2023-11-17T08:35:45.686Z,1012.85
2023-11-17T08:36:45.654Z,1012.86
2023-11-17T08:37:45.624Z,1012.87
2023-11-17T08:38:45.592Z,1012.89
2023-11-17T08:39:45.582Z,1012.88
2023-11-17T08:40:45.551Z,1012.87
2023-11-17T08:41:45.509Z,1012.87
2023-11-17T08:42:45.488Z,1012.93
2023-11-17T08:43:46.150Z,1012.92
2023-11-17T08:44:45.433Z,1012.94
2023-11-17T08:45:45.491Z,1012.97
2023-11-17T08:46:45.462Z,1012.95
2023-11-17T08:47:45.388Z,1012.96
2023-11-17T08:48:45.314Z,1012.93
2023-11-17T08:49:45.298Z,1012.99
2023-11-17T08:50:45.254Z,1013.02
2023-11-17T08:51:45.236Z,1012.98
2023-11-17T08:52:45.207Z,1013.00
2023-11-17T08:53:45.178Z,1013.04
2023-11-17T08:54:45.146Z,1013.04
2023-11-17T08:55:45.650Z,1013.07
2023-11-17T08:56:45.088Z,1013.03
2023-11-17T08:57:45.070Z,1013.06
2023-11-17T08:58:45.096Z,1013.04
2023-11-17T08:59:45.131Z,1013.05
2023-11-17T09:00:44.982Z,1013.01
2023-11-17T09:01:45.280Z,1013.01
2023-11-17T09:02:44.948Z,1013.05
2023-11-17T09:03:44.918Z,1013.04
2023-11-17T09:04:44.909Z,1013.09
2023-11-17T09:05:44.845Z,1013.07
2023-11-17T09:06:44.813Z,1013.07
2023-11-17T09:07:44.813Z,1013.08
2023-11-17T09:08:44.762Z,1013.08
2023-11-17T09:09:44.731Z,1013.06
2023-11-17T09:10:44.824Z,1013.09
2023-11-17T09:11:44.674Z,1013.11
2023-11-17T09:12:47.946Z,1013.08
2023-11-17T09:13:44.667Z,1013.09
2023-11-17T09:14:44.585Z,1013.03
2023-11-17T09:15:44.756Z,1013.11
2023-11-17T09:16:49.690Z,1013.11
2023-11-17T09:17:44.580Z,1013.14
2023-11-17T09:18:44.482Z,1013.16
2023-11-17T09:19:44.490Z,1013.13
2023-11-17T09:20:44.425Z,1013.19
2023-11-17T09:21:44.398Z,1013.20
2023-11-17T09:22:44.365Z,1013.24
2023-11-17T09:23:44.344Z,1013.25
2023-11-17T09:24:44.312Z,1013.22
2023-11-17T09:25:44.387Z,1013.28
2023-11-17T09:26:44.280Z,1013.30
2023-11-17T09:27:44.227Z,1013.29
2023-11-17T09:28:44.215Z,1013.34
2023-11-17T09:29:44.230Z,1013.35
2023-11-17T09:30:47.551Z,1013.37
2023-11-17T09:31:44.261Z,1013.40
2023-11-17T09:32:44.103Z,1013.39
2023-11-17T09:33:44.084Z,1013.40
2023-11-17T09:34:44.069Z,1013.40
2023-11-17T09:35:44.033Z,1013.40
2023-11-17T09:36:43.981Z,1013.42
2023-11-17T09:37:43.992Z,1013.42
2023-11-17T09:38:43.972Z,1013.41
2023-11-17T09:39:43.900Z,1013.44
2023-11-17T09:40:43.903Z,1013.43
2023-11-17T09:41:43.854Z,1013.46
2023-11-17T09:42:43.815Z,1013.46
2023-11-17T09:43:43.874Z,1013.46
2023-11-17T09:44:43.759Z,1013.48
2023-11-17T09:45:43.740Z,1013.46
2023-11-17T09:46:43.744Z,1013.49
2023-11-17T09:47:43.959Z,1013.48
2023-11-17T09:48:43.716Z,1013.49
2023-11-17T09:49:43.924Z,1013.50
2023-11-17T09:50:43.590Z,1013.52
2023-11-17T09:51:43.560Z,1013.45
2023-11-17T09:52:43.555Z,1013.49
2023-11-17T09:53:43.502Z,1013.48
2023-11-17T09:54:43.473Z,1013.52
2023-11-17T09:55:43.600Z,1013.56
2023-11-17T09:56:43.420Z,1013.59
2023-11-17T09:57:43.480Z,1013.66
2023-11-17T09:58:43.434Z,1013.65
2023-11-17T09:59:43.336Z,1013.66
2023-11-17T10:00:43.315Z,1013.66
2023-11-17T10:01:43.354Z,1013.66
2023-11-17T10:02:43.362Z,1013.68
2023-11-17T10:03:43.505Z,1013.66
2023-11-17T10:04:43.238Z,1013.68
2023-11-17T10:05:43.213Z,1013.70
2023-11-17T10:06:43.140Z,1013.74
2023-11-17T10:07:43.169Z,1013.68
2023-11-17T10:08:43.081Z,1013.70
2023-11-17T10:09:43.058Z,1013.69
2023-11-17T10:10:43.038Z,1013.72
2023-11-17T10:11:43.005Z,1013.71
2023-11-17T10:12:42.976Z,1013.66
2023-11-17T10:13:42.988Z,1013.67
2023-11-17T10:14:42.945Z,1013.72
2023-11-17T10:15:43.307Z,1013.68
2023-11-17T10:16:42.933Z,1013.73
2023-11-17T10:17:42.842Z,1013.72
2023-11-17T10:18:42.830Z,1013.68
2023-11-17T10:19:42.947Z,1013.71
2023-11-17T10:20:42.767Z,1013.70
2023-11-17T10:21:42.722Z,1013.70
2023-11-17T10:22:42.757Z,1013.67
2023-11-17T10:23:42.666Z,1013.70
2023-11-17T10:24:42.640Z,1013.71
2023-11-17T10:25:42.626Z,1013.74
2023-11-17T10:26:42.578Z,1013.70
2023-11-17T10:27:42.577Z,1013.71
2023-11-17T10:28:42.582Z,1013.71
2023-11-17T10:29:42.493Z,1013.69
2023-11-17T10:30:42.724Z,1013.70
2023-11-17T10:31:42.552Z,1013.75
2023-11-17T10:32:53.897Z,1013.74
2023-11-17T10:33:42.476Z,1013.74
2023-11-17T10:34:42.425Z,1013.74
2023-11-17T10:35:42.442Z,1013.73
2023-11-17T10:36:42.302Z,1013.72
2023-11-17T10:37:42.268Z,1013.70
2023-11-17T10:38:42.246Z,1013.74
2023-11-17T10:39:49.342Z,1013.69
2023-11-17T10:40:42.222Z,1013.75
2023-11-17T10:41:42.152Z,1013.71
2023-11-17T10:42:42.140Z,1013.73
2023-11-17T10:43:42.129Z,1013.71
2023-11-17T10:44:42.076Z,1013.74
2023-11-17T10:45:42.060Z,1013.76
2023-11-17T10:46:42.385Z,1013.74
2023-11-17T10:47:42.009Z,1013.75
2023-11-17T10:48:41.963Z,1013.76
2023-11-17T10:49:41.943Z,1013.75
2023-11-17T10:50:41.906Z,1013.78
2023-11-17T10:51:41.982Z,1013.78
2023-11-17T10:52:41.911Z,1013.73
2023-11-17T10:53:41.848Z,1013.78
2023-11-17T10:54:41.797Z,1013.77
2023-11-17T10:55:41.813Z,1013.78
2023-11-17T10:56:41.769Z,1013.74
2023-11-17T10:57:41.714Z,1013.77
2023-11-17T10:58:41.719Z,1013.76
2023-11-17T10:59:48.830Z,1013.78
2023-11-17T11:00:41.631Z,1013.73
2023-11-17T11:01:41.670Z,1013.74
2023-11-17T11:02:41.676Z,1013.75
2023-11-17T11:03:41.613Z,1013.76
2023-11-17T11:04:41.586Z,1013.74
2023-11-17T11:05:41.495Z,1013.75
2023-11-17T11:06:41.488Z,1013.76
2023-11-17T11:07:41.583Z,1013.79
2023-11-17T11:08:41.412Z,1013.77
2023-11-17T11:09:41.436Z,1013.81
2023-11-17T11:10:41.373Z,1013.81
2023-11-17T11:11:41.322Z,1013.79
2023-11-17T11:12:41.301Z,1013.83
2023-11-17T11:13:41.380Z,1013.76
2023-11-17T11:14:41.243Z,1013.78
2023-11-17T11:15:41.216Z,1013.75
2023-11-17T11:16:41.272Z,1013.81
2023-11-17T11:17:41.177Z,1013.81
2023-11-17T11:18:41.134Z,1013.81
2023-11-17T11:19:49.391Z,1013.84
2023-11-17T11:20:41.195Z,1013.86
2023-11-17T11:21:41.056Z,1013.86
2023-11-17T11:22:41.070Z,1013.84
2023-11-17T11:23:41.121Z,1013.84
2023-11-17T11:24:41.972Z,1013.86
2023-11-17T11:25:40.978Z,1013.84
2023-11-17T11:26:40.917Z,1013.83
2023-11-17T11:27:40.886Z,1013.82
2023-11-17T11:28:40.892Z,1013.82
2023-11-17T11:29:40.859Z,1013.85
2023-11-17T11:30:41.863Z,1013.84
2023-11-17T11:31:40.861Z,1013.86
2023-11-17T11:32:40.795Z,1013.83
2023-11-17T11:33:40.726Z,1013.87
2023-11-17T11:34:40.885Z,1013.87
2023-11-17T11:35:40.665Z,1013.86
2023-11-17T11:36:41.070Z,1013.86
2023-11-17T11:37:40.633Z,1013.86
2023-11-17T11:38:40.637Z,1013.89
2023-11-17T11:39:40.676Z,1013.89
2023-11-17T11:40:40.578Z,1013.87
2023-11-17T11:41:40.499Z,1013.86
2023-11-17T11:42:40.819Z,1013.85
2023-11-17T11:43:40.514Z,1013.83
2023-11-17T11:44:40.419Z,1013.86
2023-11-17T11:45:40.390Z,1013.80
2023-11-17T11:46:40.486Z,1013.82
2023-11-17T11:47:40.383Z,1013.83
2023-11-17T11:48:40.320Z,1013.84
2023-11-17T11:49:40.297Z,1013.88
2023-11-17T11:50:40.288Z,1013.88
2023-11-17T11:51:40.219Z,1013.93
2023-11-17T11:52:40.264Z,1013.95
2023-11-17T11:53:40.171Z,1013.97
2023-11-17T11:54:40.141Z,1013.95
2023-11-17T11:55:40.260Z,1013.96
2023-11-17T11:56:40.124Z,1013.97
2023-11-17T11:57:40.053Z,1013.98
2023-11-17T11:58:40.074Z,1014.01
2023-11-17T11:59:40.002Z,1013.98
2023-11-17T12:00:39.975Z,1014.00
2023-11-17T12:01:39.976Z,1013.96
2023-11-17T12:02:39.967Z,1013.96
2023-11-17T12:03:39.980Z,1013.93
2023-11-17T12:04:40.031Z,1013.93
2023-11-17T12:05:39.838Z,1013.93